createdAt,value
2019-05-25T00:00:03.753Z,16.20
2019-05-25T00:02:32.361Z,16.22
2019-05-25T00:05:00.927Z,16.24
2019-05-25T00:07:29.394Z,16.24
2019-05-25T00:09:57.813Z,16.25
2019-05-25T00:12:26.485Z,16.25
2019-05-25T00:14:54.889Z,16.25
2019-05-25T00:17:23.381Z,16.24
2019-05-25T00:19:51.782Z,16.22
2019-05-25T00:22:20.181Z,16.18
2019-05-25T00:24:48.793Z,16.16
2019-05-25T00:27:17.270Z,16.14
2019-05-25T00:29:45.661Z,16.13
2019-05-25T00:32:14.087Z,16.08
2019-05-25T00:34:42.485Z,16.09
2019-05-25T00:37:11.129Z,16.02
2019-05-25T00:39:39.555Z,15.93
2019-05-25T00:42:07.949Z,15.89
2019-05-25T00:44:36.350Z,15.86
2019-05-25T00:47:04.869Z,15.84
2019-05-25T00:49:33.301Z,15.79
2019-05-25T00:52:01.717Z,15.77
2019-05-25T00:54:30.581Z,15.77
2019-05-25T00:56:58.977Z,15.73
2019-05-25T00:59:27.449Z,15.70
2019-05-25T01:01:55.866Z,15.70
2019-05-25T01:04:24.258Z,15.71
2019-05-25T01:06:52.659Z,15.70
2019-05-25T01:09:21.247Z,15.67
2019-05-25T01:11:49.645Z,15.66
2019-05-25T01:14:18.061Z,15.65
2019-05-25T01:16:46.532Z,15.64
2019-05-25T01:19:14.942Z,15.61
2019-05-25T01:21:43.314Z,15.55
2019-05-25T01:24:11.807Z,15.52
2019-05-25T01:26:40.206Z,15.51
2019-05-25T01:29:08.671Z,15.50
2019-05-25T01:31:37.133Z,15.45
2019-05-25T01:34:05.518Z,15.41
2019-05-25T01:36:33.983Z,15.39
2019-05-25T01:39:02.387Z,15.35
2019-05-25T01:41:30.790Z,15.32
2019-05-25T01:43:59.231Z,15.31
2019-05-25T01:46:27.656Z,15.29
2019-05-25T01:48:56.053Z,15.33
2019-05-25T01:51:24.450Z,15.34
2019-05-25T01:53:52.875Z,15.31
2019-05-25T01:56:21.301Z,15.26
2019-05-25T01:58:49.725Z,15.25
2019-05-25T02:01:18.165Z,15.25
2019-05-25T02:03:46.565Z,15.18
2019-05-25T02:06:15.027Z,15.07
2019-05-25T02:08:43.557Z,14.99
2019-05-25T02:11:11.956Z,14.89
2019-05-25T02:13:40.418Z,14.82
2019-05-25T02:16:09.481Z,14.77
2019-05-25T02:18:37.887Z,14.71
2019-05-25T02:21:06.283Z,14.69
2019-05-25T02:23:34.706Z,14.68
2019-05-25T02:26:03.097Z,14.69
2019-05-25T02:28:31.599Z,14.67
2019-05-25T02:31:00.020Z,14.64
2019-05-25T02:33:28.417Z,14.57
2019-05-25T02:35:56.820Z,14.57
2019-05-25T02:38:25.271Z,14.60
2019-05-25T02:40:53.737Z,14.67
2019-05-25T02:43:22.138Z,14.70
2019-05-25T02:45:50.764Z,14.67
2019-05-25T02:48:19.164Z,14.69
2019-05-25T02:50:47.830Z,14.74
2019-05-25T02:53:16.254Z,14.71
2019-05-25T02:55:44.652Z,14.70
2019-05-25T02:58:13.051Z,14.70
2019-05-25T03:00:41.497Z,14.70
2019-05-25T03:03:09.894Z,14.67
2019-05-25T03:05:38.370Z,14.64
2019-05-25T03:08:06.882Z,14.63
2019-05-25T03:10:36.328Z,14.59
2019-05-25T03:13:05.448Z,14.51
2019-05-25T03:15:33.869Z,14.45
2019-05-25T03:18:02.408Z,14.42
2019-05-25T03:20:30.802Z,14.37
2019-05-25T03:22:59.258Z,14.34
2019-05-25T03:25:27.697Z,14.36
2019-05-25T03:27:56.170Z,14.38
2019-05-25T03:30:35.428Z,14.38
2019-05-25T03:33:04.081Z,14.36
2019-05-25T03:35:32.708Z,14.34
2019-05-25T03:38:01.145Z,14.32
2019-05-25T03:40:29.602Z,14.32
2019-05-25T03:42:57.997Z,14.37
2019-05-25T03:45:26.464Z,14.39
2019-05-25T03:47:54.826Z,14.42
2019-05-25T03:50:23.225Z,14.44
2019-05-25T03:52:51.707Z,14.48
2019-05-25T03:55:20.241Z,14.48
2019-05-25T03:57:48.645Z,14.45
2019-05-25T04:00:19.153Z,14.36
2019-05-25T04:02:47.570Z,14.24
2019-05-25T04:05:15.974Z,14.15
2019-05-25T04:07:44.575Z,14.04
2019-05-25T04:10:13.137Z,13.96
2019-05-25T04:12:41.537Z,13.93
2019-05-25T04:15:10.318Z,13.97
2019-05-25T04:17:38.824Z,13.98
2019-05-25T04:20:07.956Z,14.01
2019-05-25T04:22:36.374Z,14.05
2019-05-25T04:25:06.508Z,14.08
2019-05-25T04:27:34.898Z,14.09
2019-05-25T04:30:04.394Z,13.97
2019-05-25T04:32:32.799Z,13.88
2019-05-25T04:35:01.356Z,13.87
2019-05-25T04:37:30.014Z,13.92
2019-05-25T04:39:58.410Z,14.00
2019-05-25T04:42:26.810Z,14.07
2019-05-25T04:44:55.249Z,14.13
2019-05-25T04:47:27.041Z,14.20
2019-05-25T04:49:53.772Z,14.28
2019-05-25T04:52:22.246Z,14.33
2019-05-25T04:54:50.770Z,14.38
2019-05-25T04:57:19.170Z,14.41
2019-05-25T04:59:47.728Z,14.42
2019-05-25T05:02:16.134Z,14.42
2019-05-25T05:04:44.525Z,14.42
2019-05-25T05:07:12.968Z,14.43
2019-05-25T05:09:41.418Z,14.44
2019-05-25T05:12:09.763Z,14.43
2019-05-25T05:14:38.212Z,14.42
2019-05-25T05:17:06.688Z,14.42
2019-05-25T05:19:35.122Z,14.43
2019-05-25T05:22:05.806Z,14.47
2019-05-25T05:24:33.817Z,14.52
2019-05-25T05:27:02.228Z,14.55
2019-05-25T05:29:30.645Z,14.64
2019-05-25T05:31:59.045Z,14.71
2019-05-25T05:34:27.447Z,14.81
2019-05-25T05:36:56.517Z,14.87
2019-05-25T05:39:26.659Z,14.94
2019-05-25T05:41:55.962Z,15.02
2019-05-25T05:44:27.019Z,15.10
2019-05-25T05:46:57.793Z,15.18
2019-05-25T05:49:27.974Z,15.27
2019-05-25T05:51:59.697Z,15.33
2019-05-25T05:54:28.636Z,15.36
2019-05-25T05:57:11.036Z,15.40
2019-05-25T05:59:27.289Z,15.46
2019-05-25T06:01:55.689Z,15.54
2019-05-25T06:04:24.166Z,15.61
2019-05-25T06:06:52.582Z,15.69
2019-05-25T06:09:20.997Z,15.73
2019-05-25T06:11:49.402Z,15.82
2019-05-25T06:14:18.071Z,15.88
2019-05-25T06:16:46.469Z,15.92
2019-05-25T06:19:15.013Z,15.98
2019-05-25T06:21:43.475Z,16.07
2019-05-25T06:24:11.851Z,16.12
2019-05-25T06:26:40.328Z,16.18
2019-05-25T06:29:08.859Z,16.23
2019-05-25T06:31:37.267Z,16.27
2019-05-25T06:34:05.664Z,16.32
2019-05-25T06:36:34.089Z,16.35
2019-05-25T06:39:02.500Z,16.38
2019-05-25T06:41:30.896Z,16.41
2019-05-25T06:43:59.535Z,16.47
2019-05-25T06:46:27.941Z,16.54
2019-05-25T06:48:56.350Z,16.57
2019-05-25T06:51:24.799Z,16.65
2019-05-25T06:53:53.270Z,16.73
2019-05-25T06:56:21.666Z,16.81
2019-05-25T06:58:50.086Z,16.92
2019-05-25T07:01:18.583Z,17.02
2019-05-25T07:03:47.142Z,17.10
2019-05-25T07:06:15.863Z,17.20
2019-05-25T07:08:44.267Z,17.28
2019-05-25T07:11:12.669Z,17.39
2019-05-25T07:13:41.101Z,17.47
2019-05-25T07:16:09.576Z,17.50
2019-05-25T07:18:38.057Z,17.59
2019-05-25T07:21:06.770Z,17.67
2019-05-25T07:23:36.340Z,17.76
2019-05-25T07:26:04.903Z,17.88
2019-05-25T07:28:33.341Z,18.01
2019-05-25T07:31:01.759Z,18.12
2019-05-25T07:33:30.146Z,18.25
2019-05-25T07:35:58.581Z,18.36
2019-05-25T07:38:26.976Z,18.41
2019-05-25T07:40:55.445Z,18.45
2019-05-25T07:43:23.871Z,18.46
2019-05-25T07:45:52.280Z,18.49
2019-05-25T07:48:20.713Z,18.56
2019-05-25T07:50:49.145Z,18.60
2019-05-25T07:53:17.553Z,18.65
2019-05-25T07:55:45.942Z,18.75
2019-05-25T07:58:18.106Z,18.89
2019-05-25T08:00:44.605Z,19.02
2019-05-25T08:03:13.041Z,19.10
2019-05-25T08:05:41.474Z,19.14
2019-05-25T08:08:09.873Z,19.18
2019-05-25T08:10:38.273Z,19.21
2019-05-25T08:13:06.753Z,19.26
2019-05-25T08:15:35.115Z,19.32
2019-05-25T08:18:03.513Z,19.36
2019-05-25T08:20:31.941Z,19.45
2019-05-25T08:23:00.373Z,19.57
2019-05-25T08:25:28.907Z,19.67
2019-05-25T08:27:57.474Z,19.77
2019-05-25T08:30:25.888Z,19.87
2019-05-25T08:32:54.273Z,20.00
2019-05-25T08:35:22.823Z,20.10
2019-05-25T08:37:51.219Z,20.17
2019-05-25T08:40:19.681Z,20.24
2019-05-25T08:42:48.110Z,20.31
2019-05-25T08:45:26.031Z,20.42
2019-05-25T08:47:57.036Z,20.56
2019-05-25T08:50:37.172Z,20.68
2019-05-25T08:52:54.884Z,20.80
2019-05-25T08:55:23.310Z,20.92
2019-05-25T08:57:51.723Z,21.01
2019-05-25T09:00:20.509Z,21.09
2019-05-25T09:02:48.880Z,21.19
2019-05-25T09:05:17.533Z,21.34
2019-05-25T09:07:45.944Z,21.40
2019-05-25T09:10:14.838Z,21.52
2019-05-25T09:12:43.234Z,21.61
2019-05-25T09:15:12.078Z,21.72
2019-05-25T09:17:40.501Z,21.87
2019-05-25T09:20:11.445Z,22.03
2019-05-25T09:22:39.993Z,22.12
2019-05-25T09:25:09.478Z,22.25
2019-05-25T09:27:37.949Z,22.36
2019-05-25T09:30:08.087Z,22.42
2019-05-25T09:32:36.522Z,22.48
2019-05-25T09:35:08.193Z,22.54
2019-05-25T09:37:36.600Z,22.55
2019-05-25T09:40:06.833Z,22.55
2019-05-25T09:42:35.238Z,22.53
2019-05-25T09:45:05.401Z,22.53
2019-05-25T09:47:33.835Z,22.55
2019-05-25T09:50:02.277Z,22.55
2019-05-25T09:52:30.658Z,22.58
2019-05-25T09:54:59.278Z,22.59
2019-05-25T09:57:27.673Z,22.60
2019-05-25T09:59:56.065Z,22.66
2019-05-25T10:02:24.588Z,22.72
2019-05-25T10:04:52.982Z,22.79
2019-05-25T10:07:21.383Z,22.85
2019-05-25T10:09:49.864Z,22.91
2019-05-25T10:12:18.235Z,22.89
2019-05-25T10:14:46.685Z,22.87
2019-05-25T10:17:15.119Z,22.94
2019-05-25T10:19:43.588Z,23.08
2019-05-25T10:22:11.990Z,23.17
2019-05-25T10:24:40.420Z,23.33
2019-05-25T10:27:08.877Z,23.46
2019-05-25T10:29:37.861Z,23.52
2019-05-25T10:32:06.493Z,23.59
2019-05-25T10:34:34.870Z,23.64
2019-05-25T10:37:03.268Z,23.75
2019-05-25T10:39:31.755Z,23.82
2019-05-25T10:42:00.151Z,23.86
2019-05-25T10:44:28.553Z,23.90
2019-05-25T10:46:56.987Z,23.95
2019-05-25T10:49:25.382Z,23.98
2019-05-25T10:51:53.772Z,24.03
2019-05-25T10:54:22.270Z,24.11
2019-05-25T10:56:50.822Z,24.21
2019-05-25T10:59:19.374Z,24.25
2019-05-25T11:01:47.923Z,24.27
2019-05-25T11:04:16.317Z,24.25
2019-05-25T11:06:44.714Z,24.41
2019-05-25T11:09:13.144Z,24.63
2019-05-25T11:11:41.538Z,24.79
2019-05-25T11:14:09.938Z,24.91
2019-05-25T11:16:38.544Z,25.05
2019-05-25T11:19:07.011Z,25.10
2019-05-25T11:21:35.442Z,25.15
2019-05-25T11:24:03.879Z,25.21
2019-05-25T11:26:32.282Z,25.40
2019-05-25T11:29:00.712Z,25.56
2019-05-25T11:31:29.505Z,25.67
2019-05-25T11:33:58.035Z,25.84
2019-05-25T11:36:26.513Z,25.91
2019-05-25T11:38:54.941Z,26.01
2019-05-25T11:41:23.345Z,26.18
2019-05-25T11:43:51.746Z,26.31
2019-05-25T11:46:20.176Z,26.47
2019-05-25T11:48:48.571Z,26.65
2019-05-25T11:51:16.962Z,26.75
2019-05-25T11:53:45.384Z,26.77
2019-05-25T11:56:13.781Z,26.70
2019-05-25T11:58:47.560Z,26.74
2019-05-25T12:01:12.438Z,26.62
2019-05-25T12:03:40.817Z,26.29
2019-05-25T12:06:09.215Z,26.29
2019-05-25T12:08:37.762Z,26.29
2019-05-25T12:11:06.209Z,26.25
2019-05-25T12:13:34.600Z,26.25
2019-05-25T12:16:03.048Z,26.21
2019-05-25T12:18:31.453Z,26.24
2019-05-25T12:20:59.859Z,26.43
2019-05-25T12:23:28.274Z,26.61
2019-05-25T12:25:56.669Z,26.66
2019-05-25T12:28:25.060Z,26.73
2019-05-25T12:30:53.497Z,26.78
2019-05-25T12:33:21.890Z,26.85
2019-05-25T12:35:50.291Z,26.86
2019-05-25T12:38:18.722Z,26.73
2019-05-25T12:40:53.533Z,26.58
2019-05-25T12:43:17.737Z,26.44
2019-05-25T12:45:49.189Z,26.37
2019-05-25T12:48:17.587Z,26.20
2019-05-25T12:50:45.987Z,26.06
2019-05-25T12:53:14.409Z,26.09
2019-05-25T12:55:42.825Z,26.08
2019-05-25T12:58:12.361Z,26.05
2019-05-25T13:00:55.153Z,26.01
2019-05-25T13:03:11.150Z,25.88
2019-05-25T13:05:39.601Z,25.72
2019-05-25T13:08:08.134Z,25.53
2019-05-25T13:10:36.528Z,25.38
2019-05-25T13:13:05.184Z,25.23
2019-05-25T13:15:33.601Z,25.14
2019-05-25T13:18:02.015Z,25.10
2019-05-25T13:20:30.413Z,24.96
2019-05-25T13:22:58.838Z,24.85
2019-05-25T13:25:27.239Z,24.67
2019-05-25T13:27:55.635Z,24.48
2019-05-25T13:30:24.147Z,24.11
2019-05-25T13:32:52.551Z,23.57
2019-05-25T13:35:20.945Z,23.03
2019-05-25T13:37:49.369Z,22.60
2019-05-25T13:40:17.848Z,22.23
2019-05-25T13:42:46.428Z,21.92
2019-05-25T13:45:15.978Z,21.63
2019-05-25T13:47:44.382Z,21.40
2019-05-25T13:50:13.209Z,21.22
2019-05-25T13:52:42.041Z,21.07
2019-05-25T13:55:10.983Z,20.89
2019-05-25T13:57:39.463Z,20.81
2019-05-25T14:00:09.450Z,20.80
2019-05-25T14:02:37.853Z,20.80
2019-05-25T14:05:07.086Z,20.80
2019-05-25T14:07:35.606Z,20.81
2019-05-25T14:10:08.561Z,20.89
2019-05-25T14:12:37.025Z,20.87
2019-05-25T14:15:09.579Z,20.93
2019-05-25T14:17:37.972Z,21.02
2019-05-25T14:20:07.211Z,21.14
2019-05-25T14:22:37.163Z,21.31
2019-05-25T14:25:07.769Z,21.50
2019-05-25T14:27:36.171Z,21.65
2019-05-25T14:30:06.117Z,21.77
2019-05-25T14:32:34.585Z,21.90
2019-05-25T14:35:02.994Z,21.98
2019-05-25T14:37:31.415Z,21.99
2019-05-25T14:39:59.981Z,21.95
2019-05-25T14:42:28.383Z,21.90
2019-05-25T14:44:57.753Z,21.91
2019-05-25T14:47:26.172Z,21.96
2019-05-25T14:49:54.552Z,21.99
2019-05-25T14:52:23.009Z,22.05
2019-05-25T14:54:51.419Z,22.12
2019-05-25T14:57:19.814Z,22.19
2019-05-25T14:59:48.269Z,22.21
2019-05-25T15:02:16.676Z,22.17
2019-05-25T15:04:45.513Z,22.10
2019-05-25T15:07:14.164Z,22.01
2019-05-25T15:09:42.789Z,21.99
2019-05-25T15:12:11.246Z,21.93
2019-05-25T15:14:39.741Z,21.84
2019-05-25T15:17:08.167Z,21.69
2019-05-25T15:19:36.582Z,21.57
2019-05-25T15:22:05.751Z,21.47
2019-05-25T15:24:34.324Z,21.37
2019-05-25T15:27:02.814Z,21.26
2019-05-25T15:29:31.355Z,21.13
2019-05-25T15:31:59.758Z,20.88
2019-05-25T15:34:31.261Z,20.61
2019-05-25T15:36:59.760Z,20.42
2019-05-25T15:39:28.227Z,20.31
2019-05-25T15:41:56.631Z,20.20
2019-05-25T15:44:25.431Z,20.09
2019-05-25T15:46:53.859Z,20.06
2019-05-25T15:49:32.433Z,19.97
2019-05-25T15:51:52.418Z,19.76
2019-05-25T15:54:20.897Z,19.59
2019-05-25T15:56:49.296Z,19.42
2019-05-25T15:59:17.739Z,19.16
2019-05-25T16:01:46.168Z,18.99
2019-05-25T16:04:14.573Z,18.82
2019-05-25T16:06:43.076Z,18.70
2019-05-25T16:09:11.474Z,18.55
2019-05-25T16:11:39.873Z,18.37
2019-05-25T16:14:08.368Z,18.30
2019-05-25T16:16:36.778Z,18.24
2019-05-25T16:19:05.185Z,18.09
2019-05-25T16:21:33.713Z,17.97
2019-05-25T16:24:02.104Z,17.93
2019-05-25T16:26:44.949Z,17.94
2019-05-25T16:29:01.130Z,17.77
2019-05-25T16:31:29.536Z,17.63
2019-05-25T16:33:58.183Z,17.52
2019-05-25T16:36:26.664Z,17.41
2019-05-25T16:38:55.071Z,17.23
2019-05-25T16:41:23.511Z,17.04
2019-05-25T16:43:51.976Z,16.93
2019-05-25T16:46:20.370Z,16.90
2019-05-25T16:48:48.784Z,16.80
2019-05-25T16:51:17.456Z,16.72
2019-05-25T16:53:45.872Z,16.67
2019-05-25T16:56:14.260Z,16.69
2019-05-25T16:58:42.796Z,16.69
2019-05-25T17:01:11.207Z,16.66
2019-05-25T17:03:39.609Z,16.63
2019-05-25T17:06:08.079Z,16.65
2019-05-25T17:08:36.474Z,16.68
2019-05-25T17:11:04.882Z,16.73
2019-05-25T17:13:33.473Z,16.77
2019-05-25T17:16:01.870Z,16.86
2019-05-25T17:18:30.272Z,16.96
2019-05-25T17:20:58.768Z,17.06
2019-05-25T17:23:27.182Z,17.17
2019-05-25T17:25:55.579Z,17.21
2019-05-25T17:28:24.012Z,17.35
2019-05-25T17:30:52.410Z,17.42
2019-05-25T17:33:20.880Z,17.44
2019-05-25T17:35:49.321Z,17.56
2019-05-25T17:38:17.716Z,17.58
2019-05-25T17:40:46.116Z,17.55
2019-05-25T17:43:14.641Z,17.51
2019-05-25T17:45:43.048Z,17.59
2019-05-25T17:48:11.448Z,17.69
2019-05-25T17:50:39.891Z,17.82
2019-05-25T17:53:08.296Z,17.93
2019-05-25T17:55:36.696Z,17.99
2019-05-25T17:58:05.616Z,18.03
2019-05-25T18:00:39.556Z,18.05
2019-05-25T18:03:08.328Z,18.09
2019-05-25T18:05:36.837Z,18.12
2019-05-25T18:08:05.899Z,18.14
2019-05-25T18:10:51.373Z,18.15
2019-05-25T18:13:05.430Z,18.18
2019-05-25T18:15:33.821Z,18.17
2019-05-25T18:18:02.221Z,18.16
2019-05-25T18:20:30.760Z,18.16
2019-05-25T18:22:59.165Z,18.14
2019-05-25T18:25:27.562Z,18.12
2019-05-25T18:27:56.071Z,18.11
2019-05-25T18:30:25.210Z,18.09
2019-05-25T18:32:54.364Z,18.06
2019-05-25T18:35:22.862Z,18.04
2019-05-25T18:37:51.271Z,18.00
2019-05-25T18:40:20.006Z,17.95
2019-05-25T18:42:48.616Z,17.82
2019-05-25T18:45:17.892Z,17.69
2019-05-25T18:47:46.281Z,17.59
2019-05-25T18:50:16.449Z,17.42
2019-05-25T18:52:44.860Z,17.32
2019-05-25T18:55:13.802Z,17.32
2019-05-25T18:57:42.234Z,17.37
2019-05-25T19:00:11.472Z,17.32
2019-05-25T19:02:39.870Z,17.27
2019-05-25T19:05:08.962Z,17.16
2019-05-25T19:07:37.494Z,17.05
2019-05-25T19:10:08.333Z,17.03
2019-05-25T19:12:36.934Z,17.09
2019-05-25T19:15:07.744Z,17.10
2019-05-25T19:17:39.149Z,17.16
2019-05-25T19:20:09.922Z,17.24
2019-05-25T19:22:38.360Z,17.32
2019-05-25T19:25:09.340Z,17.37
2019-05-25T19:27:37.917Z,17.37
2019-05-25T19:30:10.472Z,17.39
2019-05-25T19:32:38.944Z,17.41
2019-05-25T19:35:08.898Z,17.46
2019-05-25T19:37:37.296Z,17.53
2019-05-25T19:40:09.164Z,17.53
2019-05-25T19:42:37.452Z,17.50
2019-05-25T19:45:08.391Z,17.50
2019-05-25T19:47:36.812Z,17.51
2019-05-25T19:50:07.273Z,17.45
2019-05-25T19:52:35.747Z,17.34
2019-05-25T19:55:07.256Z,17.26
2019-05-25T19:57:35.852Z,17.18
2019-05-25T20:00:06.975Z,17.11
2019-05-25T20:02:35.515Z,17.07
2019-05-25T20:05:15.700Z,17.16
2019-05-25T20:07:36.066Z,17.20
2019-05-25T20:10:07.197Z,17.27
2019-05-25T20:12:35.637Z,17.31
2019-05-25T20:15:05.888Z,17.24
2019-05-25T20:17:34.284Z,17.18
2019-05-25T20:20:02.721Z,17.12
2019-05-25T20:22:31.118Z,17.08
2019-05-25T20:24:59.584Z,17.02
2019-05-25T20:27:28.074Z,17.01
2019-05-25T20:29:58.514Z,17.07
2019-05-25T20:32:29.233Z,17.08
2019-05-25T20:34:58.226Z,17.09
2019-05-25T20:37:26.634Z,17.03
2019-05-25T20:39:55.040Z,16.97
2019-05-25T20:42:23.464Z,16.92
2019-05-25T20:44:51.864Z,16.97
2019-05-25T20:47:20.269Z,16.96
2019-05-25T20:49:48.714Z,16.90
2019-05-25T20:52:17.111Z,16.87
2019-05-25T20:54:45.513Z,16.81
2019-05-25T20:57:13.949Z,16.80
2019-05-25T20:59:42.338Z,16.86
2019-05-25T21:02:10.741Z,16.90
2019-05-25T21:04:39.331Z,16.98
2019-05-25T21:07:07.731Z,17.02
2019-05-25T21:09:36.146Z,17.03
2019-05-25T21:12:04.734Z,17.08
2019-05-25T21:14:33.133Z,17.10
2019-05-25T21:17:01.536Z,17.06
2019-05-25T21:19:29.955Z,17.01
2019-05-25T21:21:58.360Z,16.99
2019-05-25T21:24:26.825Z,17.00
2019-05-25T21:26:55.274Z,17.01
2019-05-25T21:29:23.678Z,16.98
2019-05-25T21:31:52.112Z,16.96
2019-05-25T21:34:20.624Z,17.02
2019-05-25T21:36:49.018Z,17.04
2019-05-25T21:39:19.327Z,17.02
2019-05-25T21:41:47.728Z,16.96
2019-05-25T21:44:16.124Z,16.94
2019-05-25T21:46:44.522Z,16.94
2019-05-25T21:49:13.101Z,16.95
2019-05-25T21:51:41.502Z,16.98
2019-05-25T21:54:09.908Z,16.92
2019-05-25T21:56:38.366Z,16.87
2019-05-25T21:59:06.759Z,16.86
2019-05-25T22:01:35.220Z,16.88
2019-05-25T22:04:03.649Z,16.89
2019-05-25T22:06:32.040Z,16.88
2019-05-25T22:09:00.455Z,16.84
2019-05-25T22:11:28.864Z,16.79
2019-05-25T22:13:58.902Z,16.75
2019-05-25T22:16:27.299Z,16.72
2019-05-25T22:18:55.740Z,16.69
2019-05-25T22:21:24.136Z,16.59
2019-05-25T22:23:52.534Z,16.51
2019-05-25T22:26:20.968Z,16.44
2019-05-25T22:28:49.373Z,16.36
2019-05-25T22:31:17.944Z,16.26
2019-05-25T22:33:46.362Z,16.18
2019-05-25T22:36:14.769Z,16.12
2019-05-25T22:38:43.162Z,16.10
2019-05-25T22:41:11.605Z,16.07
2019-05-25T22:43:40.000Z,16.07
2019-05-25T22:46:08.398Z,16.08
2019-05-25T22:48:36.818Z,16.09
2019-05-25T22:51:05.222Z,16.09
2019-05-25T22:53:33.620Z,16.11
2019-05-25T22:56:02.062Z,16.14
2019-05-25T22:58:30.458Z,16.13
2019-05-25T23:01:01.601Z,16.11
2019-05-25T23:03:30.047Z,16.13
2019-05-25T23:05:58.436Z,16.16
2019-05-25T23:08:26.832Z,16.14
2019-05-25T23:10:55.262Z,16.16
2019-05-25T23:13:26.790Z,16.18
2019-05-25T23:15:55.190Z,16.19
2019-05-25T23:18:23.757Z,16.19
2019-05-25T23:20:52.158Z,16.19
2019-05-25T23:23:20.553Z,16.16
2019-05-25T23:25:49.117Z,16.13
2019-05-25T23:28:20.283Z,16.20
2019-05-25T23:30:48.677Z,16.20
2019-05-25T23:33:17.113Z,16.19
2019-05-25T23:35:45.517Z,16.18
2019-05-25T23:38:13.908Z,16.14
2019-05-25T23:40:42.346Z,16.13
2019-05-25T23:43:10.730Z,16.10
2019-05-25T23:45:39.201Z,16.05
2019-05-25T23:48:07.626Z,15.99
2019-05-25T23:50:36.020Z,15.97
2019-05-25T23:53:04.503Z,15.92
2019-05-25T23:55:32.980Z,15.87
2019-05-25T23:58:01.382Z,15.83
